sensor_id;sensor_type;location;lat;lon;timestamp;P1;durP1;ratioP1;P2;durP2;ratioP2
35887;SDS011;21990;42.540;23.496;2023-02-02T00:01:47;47.35;;;18.77;;
35887;SDS011;21990;42.540;23.496;2023-02-02T00:04:16;39.13;;;16.95;;
35887;SDS011;21990;42.540;23.496;2023-02-02T00:06:52;38.75;;;17.30;;
35887;SDS011;21990;42.540;23.496;2023-02-02T00:09:18;32.40;;;13.82;;
35887;SDS011;21990;42.540;23.496;2023-02-02T00:11:45;44.72;;;19.63;;
35887;SDS011;21990;42.540;23.496;2023-02-02T00:14:12;50.05;;;21.60;;
35887;SDS011;21990;42.540;23.496;2023-02-02T00:16:39;29.75;;;14.63;;
35887;SDS011;21990;42.540;23.496;2023-02-02T00:19:11;38.67;;;16.10;;
35887;SDS011;21990;42.540;23.496;2023-02-02T00:21:42;32.30;;;15.73;;
35887;SDS011;21990;42.540;23.496;2023-02-02T00:24:09;29.20;;;13.52;;
35887;SDS011;21990;42.540;23.496;2023-02-02T00:26:38;35.35;;;14.52;;
35887;SDS011;21990;42.540;23.496;2023-02-02T00:29:05;35.13;;;12.98;;
35887;SDS011;21990;42.540;23.496;2023-02-02T00:31:32;28.73;;;12.38;;
35887;SDS011;21990;42.540;23.496;2023-02-02T00:33:58;83.30;;;32.13;;
35887;SDS011;21990;42.540;23.496;2023-02-02T00:36:24;98.88;;;40.17;;
35887;SDS011;21990;42.540;23.496;2023-02-02T00:38:50;29.52;;;12.43;;
35887;SDS011;21990;42.540;23.496;2023-02-02T00:41:17;30.33;;;14.68;;
35887;SDS011;21990;42.540;23.496;2023-02-02T00:43:43;58.30;;;23.27;;
35887;SDS011;21990;42.540;23.496;2023-02-02T00:46:16;37.65;;;15.27;;
35887;SDS011;21990;42.540;23.496;2023-02-02T00:48:43;38.15;;;15.63;;
35887;SDS011;21990;42.540;23.496;2023-02-02T00:51:08;49.30;;;20.85;;
35887;SDS011;21990;42.540;23.496;2023-02-02T00:53:34;36.50;;;16.77;;
35887;SDS011;21990;42.540;23.496;2023-02-02T00:56:00;42.53;;;18.85;;
35887;SDS011;21990;42.540;23.496;2023-02-02T00:58:25;45.83;;;19.33;;
35887;SDS011;21990;42.540;23.496;2023-02-02T01:00:51;43.53;;;17.38;;
35887;SDS011;21990;42.540;23.496;2023-02-02T01:03:16;39.22;;;17.38;;
35887;SDS011;21990;42.540;23.496;2023-02-02T01:05:42;57.90;;;23.83;;
35887;SDS011;21990;42.540;23.496;2023-02-02T01:08:07;46.15;;;20.10;;
35887;SDS011;21990;42.540;23.496;2023-02-02T01:10:33;59.65;;;21.05;;
35887;SDS011;21990;42.540;23.496;2023-02-02T01:12:59;23.00;;;9.55;;
35887;SDS011;21990;42.540;23.496;2023-02-02T01:15:25;6.72;;;2.90;;
35887;SDS011;21990;42.540;23.496;2023-02-02T01:17:50;5.47;;;2.80;;
35887;SDS011;21990;42.540;23.496;2023-02-02T01:20:18;4.57;;;2.30;;
35887;SDS011;21990;42.540;23.496;2023-02-02T01:22:45;8.70;;;2.20;;
35887;SDS011;21990;42.540;23.496;2023-02-02T01:25:11;4.38;;;2.30;;
35887;SDS011;21990;42.540;23.496;2023-02-02T01:27:37;6.50;;;1.92;;
35887;SDS011;21990;42.540;23.496;2023-02-02T01:30:03;3.63;;;2.10;;
35887;SDS011;21990;42.540;23.496;2023-02-02T01:32:29;7.80;;;2.55;;
35887;SDS011;21990;42.540;23.496;2023-02-02T01:34:54;6.40;;;2.60;;
35887;SDS011;21990;42.540;23.496;2023-02-02T01:37:20;6.80;;;2.15;;
35887;SDS011;21990;42.540;23.496;2023-02-02T01:39:46;7.65;;;2.88;;
35887;SDS011;21990;42.540;23.496;2023-02-02T01:42:13;7.47;;;2.47;;
35887;SDS011;21990;42.540;23.496;2023-02-02T01:48:00;11.63;;;3.40;;
35887;SDS011;21990;42.540;23.496;2023-02-02T01:50:27;17.55;;;5.63;;
35887;SDS011;21990;42.540;23.496;2023-02-02T01:52:57;17.38;;;6.15;;
35887;SDS011;21990;42.540;23.496;2023-02-02T01:55:25;11.13;;;4.07;;
35887;SDS011;21990;42.540;23.496;2023-02-02T01:57:55;5.53;;;2.05;;
35887;SDS011;21990;42.540;23.496;2023-02-02T02:00:23;13.75;;;4.55;;
35887;SDS011;21990;42.540;23.496;2023-02-02T02:02:52;83.30;;;22.10;;
35887;SDS011;21990;42.540;23.496;2023-02-02T02:05:43;13.35;;;4.40;;
35887;SDS011;21990;42.540;23.496;2023-02-02T02:08:17;15.38;;;4.45;;
35887;SDS011;21990;42.540;23.496;2023-02-02T02:10:50;119.88;;;38.97;;
35887;SDS011;21990;42.540;23.496;2023-02-02T02:13:16;111.03;;;34.47;;
35887;SDS011;21990;42.540;23.496;2023-02-02T02:15:46;45.25;;;13.00;;
35887;SDS011;21990;42.540;23.496;2023-02-02T02:18:44;28.42;;;9.75;;
35887;SDS011;21990;42.540;23.496;2023-02-02T02:27:47;47.55;;;15.07;;
35887;SDS011;21990;42.540;23.496;2023-02-02T02:30:38;31.42;;;11.48;;
35887;SDS011;21990;42.540;23.496;2023-02-02T02:33:17;13.52;;;4.50;;
35887;SDS011;21990;42.540;23.496;2023-02-02T02:35:59;14.15;;;5.53;;
35887;SDS011;21990;42.540;23.496;2023-02-02T02:41:20;43.88;;;15.15;;
35887;SDS011;21990;42.540;23.496;2023-02-02T02:43:54;32.28;;;12.50;;
35887;SDS011;21990;42.540;23.496;2023-02-02T02:46:26;36.40;;;12.13;;
35887;SDS011;21990;42.540;23.496;2023-02-02T02:48:52;41.22;;;11.77;;
35887;SDS011;21990;42.540;23.496;2023-02-02T02:51:40;34.95;;;12.52;;
35887;SDS011;21990;42.540;23.496;2023-02-02T02:54:06;23.73;;;10.77;;
35887;SDS011;21990;42.540;23.496;2023-02-02T02:56:35;22.40;;;10.07;;
35887;SDS011;21990;42.540;23.496;2023-02-02T02:59:23;37.90;;;13.18;;
35887;SDS011;21990;42.540;23.496;2023-02-02T03:04:37;42.58;;;15.20;;
35887;SDS011;21990;42.540;23.496;2023-02-02T03:07:10;43.75;;;16.42;;
35887;SDS011;21990;42.540;23.496;2023-02-02T03:09:46;23.33;;;10.73;;
35887;SDS011;21990;42.540;23.496;2023-02-02T03:12:14;33.25;;;11.95;;
35887;SDS011;21990;42.540;23.496;2023-02-02T03:14:40;25.83;;;10.95;;
35887;SDS011;21990;42.540;23.496;2023-02-02T03:17:06;30.83;;;12.18;;
35887;SDS011;21990;42.540;23.496;2023-02-02T03:19:32;39.55;;;14.18;;
35887;SDS011;21990;42.540;23.496;2023-02-02T03:21:58;33.22;;;12.27;;
35887;SDS011;21990;42.540;23.496;2023-02-02T03:24:23;34.63;;;14.07;;
35887;SDS011;21990;42.540;23.496;2023-02-02T03:26:49;33.33;;;14.00;;
35887;SDS011;21990;42.540;23.496;2023-02-02T03:29:15;26.40;;;12.07;;
35887;SDS011;21990;42.540;23.496;2023-02-02T03:31:40;27.58;;;12.73;;
35887;SDS011;21990;42.540;23.496;2023-02-02T03:34:06;29.77;;;12.85;;
35887;SDS011;21990;42.540;23.496;2023-02-02T03:36:32;24.73;;;10.27;;
35887;SDS011;21990;42.540;23.496;2023-02-02T03:38:57;31.85;;;12.50;;
35887;SDS011;21990;42.540;23.496;2023-02-02T03:41:23;25.70;;;11.38;;
35887;SDS011;21990;42.540;23.496;2023-02-02T03:43:49;27.58;;;13.20;;
35887;SDS011;21990;42.540;23.496;2023-02-02T03:46:14;50.97;;;20.75;;
35887;SDS011;21990;42.540;23.496;2023-02-02T03:48:40;42.35;;;16.77;;
35887;SDS011;21990;42.540;23.496;2023-02-02T03:51:06;55.33;;;22.33;;
35887;SDS011;21990;42.540;23.496;2023-02-02T03:53:37;53.40;;;22.90;;
35887;SDS011;21990;42.540;23.496;2023-02-02T03:56:03;49.60;;;21.48;;
35887;SDS011;21990;42.540;23.496;2023-02-02T03:58:28;86.80;;;34.47;;
35887;SDS011;21990;42.540;23.496;2023-02-02T04:00:58;65.45;;;24.35;;
35887;SDS011;21990;42.540;23.496;2023-02-02T04:03:27;41.58;;;17.30;;
35887;SDS011;21990;42.540;23.496;2023-02-02T04:05:53;36.58;;;15.43;;
35887;SDS011;21990;42.540;23.496;2023-02-02T04:08:18;46.10;;;16.65;;
35887;SDS011;21990;42.540;23.496;2023-02-02T04:10:46;46.00;;;17.30;;
35887;SDS011;21990;42.540;23.496;2023-02-02T04:13:12;44.55;;;18.35;;
35887;SDS011;21990;42.540;23.496;2023-02-02T04:15:40;53.42;;;20.77;;
35887;SDS011;21990;42.540;23.496;2023-02-02T04:18:05;64.70;;;23.90;;
35887;SDS011;21990;42.540;23.496;2023-02-02T04:20:31;81.80;;;30.75;;
35887;SDS011;21990;42.540;23.496;2023-02-02T04:22:56;78.05;;;27.17;;
35887;SDS011;21990;42.540;23.496;2023-02-02T04:25:22;84.53;;;27.13;;
35887;SDS011;21990;42.540;23.496;2023-02-02T04:27:47;67.70;;;24.58;;
35887;SDS011;21990;42.540;23.496;2023-02-02T04:30:13;71.80;;;27.00;;
35887;SDS011;21990;42.540;23.496;2023-02-02T04:32:38;55.60;;;23.23;;
35887;SDS011;21990;42.540;23.496;2023-02-02T04:35:04;80.22;;;26.92;;
35887;SDS011;21990;42.540;23.496;2023-02-02T04:37:30;71.30;;;26.38;;
35887;SDS011;21990;42.540;23.496;2023-02-02T04:39:56;70.28;;;25.77;;
35887;SDS011;21990;42.540;23.496;2023-02-02T04:42:22;71.80;;;28.08;;
35887;SDS011;21990;42.540;23.496;2023-02-02T04:44:47;73.82;;;27.52;;
35887;SDS011;21990;42.540;23.496;2023-02-02T04:47:13;68.38;;;26.25;;
35887;SDS011;21990;42.540;23.496;2023-02-02T04:49:38;72.43;;;26.13;;
35887;SDS011;21990;42.540;23.496;2023-02-02T04:52:04;70.85;;;25.23;;
35887;SDS011;21990;42.540;23.496;2023-02-02T04:54:30;78.05;;;32.08;;
35887;SDS011;21990;42.540;23.496;2023-02-02T04:56:56;86.28;;;30.25;;
35887;SDS011;21990;42.540;23.496;2023-02-02T04:59:22;73.82;;;28.60;;
35887;SDS011;21990;42.540;23.496;2023-02-02T05:01:47;67.50;;;25.08;;
35887;SDS011;21990;42.540;23.496;2023-02-02T05:04:14;63.25;;;24.67;;
35887;SDS011;21990;42.540;23.496;2023-02-02T05:06:39;84.05;;;32.85;;
35887;SDS011;21990;42.540;23.496;2023-02-02T05:09:05;101.18;;;40.70;;
35887;SDS011;21990;42.540;23.496;2023-02-02T05:11:30;77.20;;;30.70;;
35887;SDS011;21990;42.540;23.496;2023-02-02T05:13:56;96.22;;;39.42;;
35887;SDS011;21990;42.540;23.496;2023-02-02T05:16:22;113.28;;;45.00;;
35887;SDS011;21990;42.540;23.496;2023-02-02T05:18:52;107.18;;;43.30;;
35887;SDS011;21990;42.540;23.496;2023-02-02T05:21:19;103.65;;;37.40;;
35887;SDS011;21990;42.540;23.496;2023-02-02T05:23:46;107.93;;;44.08;;
35887;SDS011;21990;42.540;23.496;2023-02-02T05:26:13;111.25;;;45.25;;
35887;SDS011;21990;42.540;23.496;2023-02-02T05:28:41;90.68;;;39.80;;
35887;SDS011;21990;42.540;23.496;2023-02-02T05:31:07;113.50;;;44.33;;
35887;SDS011;21990;42.540;23.496;2023-02-02T05:33:33;98.70;;;42.75;;
35887;SDS011;21990;42.540;23.496;2023-02-02T05:35:59;85.38;;;38.40;;
35887;SDS011;21990;42.540;23.496;2023-02-02T05:38:24;93.55;;;39.72;;
35887;SDS011;21990;42.540;23.496;2023-02-02T05:40:49;102.75;;;44.13;;
35887;SDS011;21990;42.540;23.496;2023-02-02T05:43:15;133.98;;;56.47;;
35887;SDS011;21990;42.540;23.496;2023-02-02T05:45:40;328.92;;;135.82;;
35887;SDS011;21990;42.540;23.496;2023-02-02T05:48:06;286.17;;;119.97;;
35887;SDS011;21990;42.540;23.496;2023-02-02T05:50:33;150.57;;;61.90;;
35887;SDS011;21990;42.540;23.496;2023-02-02T05:52:58;129.02;;;54.33;;
35887;SDS011;21990;42.540;23.496;2023-02-02T05:55:24;121.45;;;53.10;;
35887;SDS011;21990;42.540;23.496;2023-02-02T05:57:49;136.55;;;58.83;;
35887;SDS011;21990;42.540;23.496;2023-02-02T06:00:15;174.55;;;72.95;;
35887;SDS011;21990;42.540;23.496;2023-02-02T06:02:41;339.25;;;134.27;;
35887;SDS011;21990;42.540;23.496;2023-02-02T06:05:06;355.73;;;140.27;;
35887;SDS011;21990;42.540;23.496;2023-02-02T06:07:32;289.08;;;112.82;;
35887;SDS011;21990;42.540;23.496;2023-02-02T06:09:57;145.98;;;58.50;;
35887;SDS011;21990;42.540;23.496;2023-02-02T06:12:23;280.80;;;116.40;;
35887;SDS011;21990;42.540;23.496;2023-02-02T06:14:49;255.63;;;103.63;;
35887;SDS011;21990;42.540;23.496;2023-02-02T06:17:14;323.80;;;128.88;;
35887;SDS011;21990;42.540;23.496;2023-02-02T06:19:40;269.13;;;99.57;;
35887;SDS011;21990;42.540;23.496;2023-02-02T06:22:05;267.42;;;105.95;;
35887;SDS011;21990;42.540;23.496;2023-02-02T06:24:31;216.82;;;92.32;;
35887;SDS011;21990;42.540;23.496;2023-02-02T06:26:56;279.65;;;115.78;;
35887;SDS011;21990;42.540;23.496;2023-02-02T06:29:22;207.10;;;92.57;;
35887;SDS011;21990;42.540;23.496;2023-02-02T06:31:47;214.63;;;96.05;;
35887;SDS011;21990;42.540;23.496;2023-02-02T06:34:13;221.15;;;95.20;;
35887;SDS011;21990;42.540;23.496;2023-02-02T06:36:39;150.38;;;64.10;;
35887;SDS011;21990;42.540;23.496;2023-02-02T06:39:05;121.43;;;54.40;;
35887;SDS011;21990;42.540;23.496;2023-02-02T06:41:32;165.60;;;75.75;;
35887;SDS011;21990;42.540;23.496;2023-02-02T06:43:58;228.55;;;104.47;;
35887;SDS011;21990;42.540;23.496;2023-02-02T06:46:24;251.15;;;115.40;;
35887;SDS011;21990;42.540;23.496;2023-02-02T06:48:50;251.50;;;111.97;;
35887;SDS011;21990;42.540;23.496;2023-02-02T06:51:15;165.32;;;75.97;;
35887;SDS011;21990;42.540;23.496;2023-02-02T06:53:42;147.50;;;65.85;;
35887;SDS011;21990;42.540;23.496;2023-02-02T06:56:10;91.32;;;43.13;;
35887;SDS011;21990;42.540;23.496;2023-02-02T06:58:36;90.60;;;40.88;;
35887;SDS011;21990;42.540;23.496;2023-02-02T07:01:05;75.55;;;36.08;;
35887;SDS011;21990;42.540;23.496;2023-02-02T07:03:32;45.08;;;22.48;;
35887;SDS011;21990;42.540;23.496;2023-02-02T07:05:58;39.50;;;18.58;;
35887;SDS011;21990;42.540;23.496;2023-02-02T07:08:34;82.45;;;37.00;;
35887;SDS011;21990;42.540;23.496;2023-02-02T07:10:59;65.80;;;30.63;;
35887;SDS011;21990;42.540;23.496;2023-02-02T07:13:25;64.57;;;29.02;;
35887;SDS011;21990;42.540;23.496;2023-02-02T07:15:50;58.10;;;25.23;;
35887;SDS011;21990;42.540;23.496;2023-02-02T07:18:16;37.65;;;17.30;;
35887;SDS011;21990;42.540;23.496;2023-02-02T07:20:41;52.45;;;22.52;;
35887;SDS011;21990;42.540;23.496;2023-02-02T07:23:06;84.95;;;39.97;;
35887;SDS011;21990;42.540;23.496;2023-02-02T07:25:32;79.65;;;35.10;;
35887;SDS011;21990;42.540;23.496;2023-02-02T07:27:57;79.45;;;34.72;;
35887;SDS011;21990;42.540;23.496;2023-02-02T07:30:23;61.33;;;29.33;;
35887;SDS011;21990;42.540;23.496;2023-02-02T07:32:49;73.18;;;32.90;;
35887;SDS011;21990;42.540;23.496;2023-02-02T07:35:15;76.40;;;32.97;;
35887;SDS011;21990;42.540;23.496;2023-02-02T07:37:41;72.30;;;31.45;;
35887;SDS011;21990;42.540;23.496;2023-02-02T07:40:07;72.25;;;32.30;;
35887;SDS011;21990;42.540;23.496;2023-02-02T07:42:33;118.63;;;46.95;;
35887;SDS011;21990;42.540;23.496;2023-02-02T07:44:59;80.50;;;37.58;;
35887;SDS011;21990;42.540;23.496;2023-02-02T07:47:25;75.57;;;30.80;;
35887;SDS011;21990;42.540;23.496;2023-02-02T07:49:50;69.63;;;29.67;;
35887;SDS011;21990;42.540;23.496;2023-02-02T07:52:16;71.15;;;31.73;;
35887;SDS011;21990;42.540;23.496;2023-02-02T07:54:41;69.82;;;31.58;;
35887;SDS011;21990;42.540;23.496;2023-02-02T07:57:07;54.92;;;26.45;;
35887;SDS011;21990;42.540;23.496;2023-02-02T07:59:32;47.53;;;20.15;;
35887;SDS011;21990;42.540;23.496;2023-02-02T08:01:58;117.35;;;45.92;;
35887;SDS011;21990;42.540;23.496;2023-02-02T08:04:23;35.58;;;16.08;;
35887;SDS011;21990;42.540;23.496;2023-02-02T08:06:49;43.53;;;16.95;;
35887;SDS011;21990;42.540;23.496;2023-02-02T08:09:14;28.42;;;12.68;;
35887;SDS011;21990;42.540;23.496;2023-02-02T08:11:40;32.72;;;12.88;;
35887;SDS011;21990;42.540;23.496;2023-02-02T08:14:06;25.50;;;10.50;;
35887;SDS011;21990;42.540;23.496;2023-02-02T08:16:32;46.58;;;20.42;;
35887;SDS011;21990;42.540;23.496;2023-02-02T08:18:58;32.45;;;11.68;;
35887;SDS011;21990;42.540;23.496;2023-02-02T08:21:24;18.13;;;9.13;;
35887;SDS011;21990;42.540;23.496;2023-02-02T08:23:50;21.17;;;10.38;;
35887;SDS011;21990;42.540;23.496;2023-02-02T08:26:19;60.72;;;24.25;;
35887;SDS011;21990;42.540;23.496;2023-02-02T08:28:53;71.63;;;25.95;;
35887;SDS011;21990;42.540;23.496;2023-02-02T08:31:21;12.40;;;5.55;;
35887;SDS011;21990;42.540;23.496;2023-02-02T08:33:49;53.17;;;25.92;;
35887;SDS011;21990;42.540;23.496;2023-02-02T08:36:18;23.88;;;9.35;;
35887;SDS011;21990;42.540;23.496;2023-02-02T08:38:46;8.77;;;3.45;;
35887;SDS011;21990;42.540;23.496;2023-02-02T08:41:14;19.85;;;5.00;;
35887;SDS011;21990;42.540;23.496;2023-02-02T08:43:41;19.23;;;4.03;;
35887;SDS011;21990;42.540;23.496;2023-02-02T08:46:07;10.73;;;3.28;;
35887;SDS011;21990;42.540;23.496;2023-02-02T08:48:35;11.48;;;3.03;;
35887;SDS011;21990;42.540;23.496;2023-02-02T08:51:01;15.68;;;4.13;;
35887;SDS011;21990;42.540;23.496;2023-02-02T08:53:28;11.73;;;4.18;;
35887;SDS011;21990;42.540;23.496;2023-02-02T08:55:58;11.07;;;3.72;;
35887;SDS011;21990;42.540;23.496;2023-02-02T08:58:25;9.93;;;3.55;;
35887;SDS011;21990;42.540;23.496;2023-02-02T09:00:51;17.65;;;3.95;;
35887;SDS011;21990;42.540;23.496;2023-02-02T09:03:16;20.42;;;3.90;;
35887;SDS011;21990;42.540;23.496;2023-02-02T09:05:42;14.68;;;2.92;;
35887;SDS011;21990;42.540;23.496;2023-02-02T09:08:08;27.10;;;3.78;;
35887;SDS011;21990;42.540;23.496;2023-02-02T09:10:34;25.05;;;4.82;;
35887;SDS011;21990;42.540;23.496;2023-02-02T09:13:00;8.45;;;3.30;;
35887;SDS011;21990;42.540;23.496;2023-02-02T09:15:26;10.63;;;3.80;;
35887;SDS011;21990;42.540;23.496;2023-02-02T09:17:51;32.35;;;12.82;;
35887;SDS011;21990;42.540;23.496;2023-02-02T09:20:17;7.70;;;3.70;;
35887;SDS011;21990;42.540;23.496;2023-02-02T09:22:43;11.50;;;4.60;;
35887;SDS011;21990;42.540;23.496;2023-02-02T09:25:08;50.38;;;19.75;;
35887;SDS011;21990;42.540;23.496;2023-02-02T09:27:37;7.47;;;2.90;;
35887;SDS011;21990;42.540;23.496;2023-02-02T09:30:05;15.30;;;4.45;;
35887;SDS011;21990;42.540;23.496;2023-02-02T09:32:32;13.30;;;5.53;;
35887;SDS011;21990;42.540;23.496;2023-02-02T09:34:58;11.75;;;4.38;;
35887;SDS011;21990;42.540;23.496;2023-02-02T09:37:24;15.32;;;6.78;;
35887;SDS011;21990;42.540;23.496;2023-02-02T09:39:51;16.60;;;4.70;;
35887;SDS011;21990;42.540;23.496;2023-02-02T09:45:02;11.75;;;6.03;;
35887;SDS011;21990;42.540;23.496;2023-02-02T09:50:26;26.35;;;10.73;;
35887;SDS011;21990;42.540;23.496;2023-02-02T09:53:36;19.13;;;6.30;;
35887;SDS011;21990;42.540;23.496;2023-02-02T09:56:11;20.10;;;9.65;;
35887;SDS011;21990;42.540;23.496;2023-02-02T09:58:55;11.05;;;4.65;;
35887;SDS011;21990;42.540;23.496;2023-02-02T10:01:32;10.75;;;3.50;;
35887;SDS011;21990;42.540;23.496;2023-02-02T10:04:13;13.82;;;5.88;;
35887;SDS011;21990;42.540;23.496;2023-02-02T10:06:41;13.85;;;5.85;;
35887;SDS011;21990;42.540;23.496;2023-02-02T10:11:41;10.77;;;4.82;;
35887;SDS011;21990;42.540;23.496;2023-02-02T10:14:21;6.80;;;3.70;;
35887;SDS011;21990;42.540;23.496;2023-02-02T10:16:55;18.15;;;6.78;;
35887;SDS011;21990;42.540;23.496;2023-02-02T10:19:24;14.40;;;5.60;;
35887;SDS011;21990;42.540;23.496;2023-02-02T10:24:30;17.20;;;7.22;;
35887;SDS011;21990;42.540;23.496;2023-02-02T10:26:57;13.25;;;5.78;;
35887;SDS011;21990;42.540;23.496;2023-02-02T10:45:31;9.75;;;4.68;;
35887;SDS011;21990;42.540;23.496;2023-02-02T10:47:57;13.85;;;4.95;;
35887;SDS011;21990;42.540;23.496;2023-02-02T10:50:23;16.23;;;4.93;;
35887;SDS011;21990;42.540;23.496;2023-02-02T10:52:59;13.02;;;4.60;;
35887;SDS011;21990;42.540;23.496;2023-02-02T11:01:36;10.38;;;3.92;;
35887;SDS011;21990;42.540;23.496;2023-02-02T11:04:01;10.45;;;3.75;;
35887;SDS011;21990;42.540;23.496;2023-02-02T11:06:45;7.40;;;4.40;;
35887;SDS011;21990;42.540;23.496;2023-02-02T11:09:18;15.50;;;5.00;;
35887;SDS011;21990;42.540;23.496;2023-02-02T11:11:47;11.02;;;3.60;;
35887;SDS011;21990;42.540;23.496;2023-02-02T11:14:16;6.53;;;3.33;;
35887;SDS011;21990;42.540;23.496;2023-02-02T11:17:03;6.45;;;3.13;;
35887;SDS011;21990;42.540;23.496;2023-02-02T11:19:31;16.13;;;4.50;;
35887;SDS011;21990;42.540;23.496;2023-02-02T11:22:00;8.88;;;3.88;;
35887;SDS011;21990;42.540;23.496;2023-02-02T11:27:17;6.57;;;3.05;;
35887;SDS011;21990;42.540;23.496;2023-02-02T11:29:47;7.28;;;3.33;;
35887;SDS011;21990;42.540;23.496;2023-02-02T11:32:24;20.90;;;10.75;;
35887;SDS011;21990;42.540;23.496;2023-02-02T11:37:29;14.23;;;3.38;;
35887;SDS011;21990;42.540;23.496;2023-02-02T11:40:17;6.80;;;2.70;;
35887;SDS011;21990;42.540;23.496;2023-02-02T11:42:47;7.15;;;3.58;;
35887;SDS011;21990;42.540;23.496;2023-02-02T11:45:15;10.43;;;4.75;;
35887;SDS011;21990;42.540;23.496;2023-02-02T11:47:43;13.02;;;2.63;;
35887;SDS011;21990;42.540;23.496;2023-02-02T11:50:16;7.07;;;3.17;;
35887;SDS011;21990;42.540;23.496;2023-02-02T11:52:50;63.15;;;21.52;;
35887;SDS011;21990;42.540;23.496;2023-02-02T11:55:17;12.10;;;3.60;;
35887;SDS011;21990;42.540;23.496;2023-02-02T12:01:24;8.65;;;4.15;;
35887;SDS011;21990;42.540;23.496;2023-02-02T12:03:54;128.25;;;50.22;;
35887;SDS011;21990;42.540;23.496;2023-02-02T12:06:25;41.60;;;18.25;;
35887;SDS011;21990;42.540;23.496;2023-02-02T12:08:58;137.80;;;57.10;;
35887;SDS011;21990;42.540;23.496;2023-02-02T12:17:53;603.60;;;249.23;;
35887;SDS011;21990;42.540;23.496;2023-02-02T12:23:36;208.60;;;77.97;;
35887;SDS011;21990;42.540;23.496;2023-02-02T12:34:41;447.08;;;171.30;;
35887;SDS011;21990;42.540;23.496;2023-02-02T12:48:34;17.85;;;6.72;;
35887;SDS011;21990;42.540;23.496;2023-02-02T12:53:59;78.78;;;31.88;;
35887;SDS011;21990;42.540;23.496;2023-02-02T12:59:42;20.73;;;4.35;;
35887;SDS011;21990;42.540;23.496;2023-02-02T13:12:54;5.80;;;3.47;;
35887;SDS011;21990;42.540;23.496;2023-02-02T13:15:28;9.18;;;3.95;;
35887;SDS011;21990;42.540;23.496;2023-02-02T13:18:00;9.07;;;5.78;;
35887;SDS011;21990;42.540;23.496;2023-02-02T13:23:04;7.60;;;3.22;;
35887;SDS011;21990;42.540;23.496;2023-02-02T13:25:34;4.97;;;2.17;;
35887;SDS011;21990;42.540;23.496;2023-02-02T13:28:05;9.02;;;4.18;;
35887;SDS011;21990;42.540;23.496;2023-02-02T13:30:51;5.72;;;2.42;;
35887;SDS011;21990;42.540;23.496;2023-02-02T13:33:22;14.35;;;4.47;;
35887;SDS011;21990;42.540;23.496;2023-02-02T13:35:56;9.18;;;2.88;;
35887;SDS011;21990;42.540;23.496;2023-02-02T13:38:27;9.35;;;2.70;;
35887;SDS011;21990;42.540;23.496;2023-02-02T13:40:55;4.78;;;2.40;;
35887;SDS011;21990;42.540;23.496;2023-02-02T13:43:32;4.28;;;2.53;;
35887;SDS011;21990;42.540;23.496;2023-02-02T13:57:27;5.00;;;3.53;;
35887;SDS011;21990;42.540;23.496;2023-02-02T14:00:18;4.65;;;2.25;;
35887;SDS011;21990;42.540;23.496;2023-02-02T14:02:50;5.97;;;3.05;;
35887;SDS011;21990;42.540;23.496;2023-02-02T14:05:22;5.00;;;2.50;;
35887;SDS011;21990;42.540;23.496;2023-02-02T14:07:58;5.22;;;2.03;;
35887;SDS011;21990;42.540;23.496;2023-02-02T14:10:27;8.10;;;2.50;;
35887;SDS011;21990;42.540;23.496;2023-02-02T14:12:55;5.60;;;3.30;;
35887;SDS011;21990;42.540;23.496;2023-02-02T14:15:42;9.52;;;4.38;;
35887;SDS011;21990;42.540;23.496;2023-02-02T14:18:08;43.38;;;16.42;;
35887;SDS011;21990;42.540;23.496;2023-02-02T14:20:39;21.90;;;8.07;;
35887;SDS011;21990;42.540;23.496;2023-02-02T14:26:38;17.45;;;8.75;;
35887;SDS011;21990;42.540;23.496;2023-02-02T14:31:59;12.65;;;6.05;;
35887;SDS011;21990;42.540;23.496;2023-02-02T14:42:25;4.88;;;2.83;;
35887;SDS011;21990;42.540;23.496;2023-02-02T14:45:32;9.25;;;5.13;;
35887;SDS011;21990;42.540;23.496;2023-02-02T14:50:33;7.63;;;3.92;;
35887;SDS011;21990;42.540;23.496;2023-02-02T14:56:02;9.25;;;3.85;;
35887;SDS011;21990;42.540;23.496;2023-02-02T14:58:34;7.47;;;3.10;;
35887;SDS011;21990;42.540;23.496;2023-02-02T15:14:30;5.97;;;3.03;;
35887;SDS011;21990;42.540;23.496;2023-02-02T15:17:11;6.10;;;3.50;;
35887;SDS011;21990;42.540;23.496;2023-02-02T15:19:46;5.03;;;3.17;;
35887;SDS011;21990;42.540;23.496;2023-02-02T15:25:02;3.22;;;2.60;;
35887;SDS011;21990;42.540;23.496;2023-02-02T15:27:36;3.42;;;2.25;;
35887;SDS011;21990;42.540;23.496;2023-02-02T15:30:05;7.10;;;3.47;;
35887;SDS011;21990;42.540;23.496;2023-02-02T15:32:34;5.18;;;3.08;;
35887;SDS011;21990;42.540;23.496;2023-02-02T15:35:02;4.30;;;2.95;;
35887;SDS011;21990;42.540;23.496;2023-02-02T15:37:32;4.03;;;2.40;;
35887;SDS011;21990;42.540;23.496;2023-02-02T15:40:06;2.42;;;2.00;;
35887;SDS011;21990;42.540;23.496;2023-02-02T15:42:41;4.80;;;2.90;;
35887;SDS011;21990;42.540;23.496;2023-02-02T15:45:52;5.05;;;2.97;;
35887;SDS011;21990;42.540;23.496;2023-02-02T15:48:30;4.17;;;2.90;;
35887;SDS011;21990;42.540;23.496;2023-02-02T15:51:04;3.97;;;2.60;;
35887;SDS011;21990;42.540;23.496;2023-02-02T15:58:49;19.30;;;9.45;;
35887;SDS011;21990;42.540;23.496;2023-02-02T16:01:22;38.00;;;16.52;;
35887;SDS011;21990;42.540;23.496;2023-02-02T16:04:13;9.27;;;6.07;;
35887;SDS011;21990;42.540;23.496;2023-02-02T16:06:43;7.35;;;4.75;;
35887;SDS011;21990;42.540;23.496;2023-02-02T16:09:13;6.18;;;3.22;;
35887;SDS011;21990;42.540;23.496;2023-02-02T16:11:52;4.65;;;2.65;;
35887;SDS011;21990;42.540;23.496;2023-02-02T16:14:18;4.57;;;2.45;;
35887;SDS011;21990;42.540;23.496;2023-02-02T16:16:44;5.05;;;2.60;;
35887;SDS011;21990;42.540;23.496;2023-02-02T16:19:20;3.53;;;2.10;;
35887;SDS011;21990;42.540;23.496;2023-02-02T16:21:47;5.30;;;3.10;;
35887;SDS011;21990;42.540;23.496;2023-02-02T16:24:38;2.42;;;1.58;;
35887;SDS011;21990;42.540;23.496;2023-02-02T16:27:04;3.22;;;1.92;;
35887;SDS011;21990;42.540;23.496;2023-02-02T16:29:34;3.47;;;1.60;;
35887;SDS011;21990;42.540;23.496;2023-02-02T16:32:00;4.07;;;2.60;;
35887;SDS011;21990;42.540;23.496;2023-02-02T16:37:13;3.50;;;2.28;;
35887;SDS011;21990;42.540;23.496;2023-02-02T16:39:41;3.83;;;2.25;;
35887;SDS011;21990;42.540;23.496;2023-02-02T16:42:19;5.68;;;2.40;;
35887;SDS011;21990;42.540;23.496;2023-02-02T16:44:48;2.90;;;1.90;;
35887;SDS011;21990;42.540;23.496;2023-02-02T16:52:54;2.65;;;1.77;;
35887;SDS011;21990;42.540;23.496;2023-02-02T16:55:23;3.53;;;1.83;;
35887;SDS011;21990;42.540;23.496;2023-02-02T16:57:53;4.50;;;2.25;;
35887;SDS011;21990;42.540;23.496;2023-02-02T17:00:21;15.43;;;7.93;;
35887;SDS011;21990;42.540;23.496;2023-02-02T17:02:56;4.90;;;3.17;;
35887;SDS011;21990;42.540;23.496;2023-02-02T17:05:29;11.50;;;5.13;;
35887;SDS011;21990;42.540;23.496;2023-02-02T17:08:01;7.65;;;4.05;;
35887;SDS011;21990;42.540;23.496;2023-02-02T17:10:39;6.03;;;3.80;;
35887;SDS011;21990;42.540;23.496;2023-02-02T17:16:11;12.75;;;6.50;;
35887;SDS011;21990;42.540;23.496;2023-02-02T17:18:40;9.35;;;5.43;;